sensor_id;sensor_type;location;lat;lon;timestamp;P1;durP1;ratioP1;P2;durP2;ratioP2
17207;SDS011;8720;48.488;9.202;2022-09-02T00:02:21;3.10;;;2.80;;
17207;SDS011;8720;48.488;9.202;2022-09-02T00:04:49;2.70;;;2.50;;
17207;SDS011;8720;48.488;9.202;2022-09-02T00:07:16;4.70;;;2.30;;
17207;SDS011;8720;48.488;9.202;2022-09-02T00:09:45;3.20;;;2.90;;
17207;SDS011;8720;48.488;9.202;2022-09-02T00:12:12;3.40;;;2.50;;
17207;SDS011;8720;48.488;9.202;2022-09-02T00:14:40;3.57;;;3.27;;
17207;SDS011;8720;48.488;9.202;2022-09-02T00:17:07;3.63;;;2.60;;
17207;SDS011;8720;48.488;9.202;2022-09-02T00:19:34;2.80;;;2.60;;
17207;SDS011;8720;48.488;9.202;2022-09-02T00:22:02;3.23;;;2.50;;
17207;SDS011;8720;48.488;9.202;2022-09-02T00:24:30;2.47;;;2.27;;
17207;SDS011;8720;48.488;9.202;2022-09-02T00:26:59;2.30;;;2.10;;
17207;SDS011;8720;48.488;9.202;2022-09-02T00:29:26;2.67;;;2.33;;
17207;SDS011;8720;48.488;9.202;2022-09-02T00:31:55;3.83;;;2.60;;
17207;SDS011;8720;48.488;9.202;2022-09-02T00:34:23;3.00;;;2.80;;
17207;SDS011;8720;48.488;9.202;2022-09-02T00:36:51;2.83;;;2.63;;
17207;SDS011;8720;48.488;9.202;2022-09-02T00:39:18;3.60;;;2.97;;
17207;SDS011;8720;48.488;9.202;2022-09-02T00:41:46;4.20;;;3.03;;
17207;SDS011;8720;48.488;9.202;2022-09-02T00:44:15;2.83;;;2.63;;
17207;SDS011;8720;48.488;9.202;2022-09-02T00:46:45;3.97;;;3.67;;
17207;SDS011;8720;48.488;9.202;2022-09-02T00:49:14;3.73;;;3.43;;
17207;SDS011;8720;48.488;9.202;2022-09-02T00:51:49;3.93;;;3.60;;
17207;SDS011;8720;48.488;9.202;2022-09-02T00:54:21;4.43;;;3.37;;
17207;SDS011;8720;48.488;9.202;2022-09-02T00:56:50;3.90;;;3.60;;
17207;SDS011;8720;48.488;9.202;2022-09-02T00:59:23;4.77;;;4.27;;
17207;SDS011;8720;48.488;9.202;2022-09-02T01:02:02;3.90;;;3.50;;
17207;SDS011;8720;48.488;9.202;2022-09-02T01:04:30;3.90;;;3.43;;
17207;SDS011;8720;48.488;9.202;2022-09-02T01:06:57;3.90;;;3.30;;
17207;SDS011;8720;48.488;9.202;2022-09-02T01:09:25;4.80;;;4.40;;
17207;SDS011;8720;48.488;9.202;2022-09-02T01:11:52;4.17;;;3.87;;
17207;SDS011;8720;48.488;9.202;2022-09-02T01:14:20;4.57;;;4.17;;
17207;SDS011;8720;48.488;9.202;2022-09-02T01:16:50;5.53;;;4.80;;
17207;SDS011;8720;48.488;9.202;2022-09-02T01:19:23;4.80;;;4.30;;
17207;SDS011;8720;48.488;9.202;2022-09-02T01:21:56;5.03;;;4.10;;
17207;SDS011;8720;48.488;9.202;2022-09-02T01:24:25;4.63;;;4.33;;
17207;SDS011;8720;48.488;9.202;2022-09-02T01:26:57;4.40;;;4.10;;
17207;SDS011;8720;48.488;9.202;2022-09-02T01:29:26;5.10;;;4.60;;
17207;SDS011;8720;48.488;9.202;2022-09-02T01:31:54;4.53;;;4.13;;
17207;SDS011;8720;48.488;9.202;2022-09-02T01:34:21;3.90;;;3.57;;
17207;SDS011;8720;48.488;9.202;2022-09-02T01:36:49;3.70;;;3.13;;
17207;SDS011;8720;48.488;9.202;2022-09-02T01:39:18;3.83;;;3.53;;
17207;SDS011;8720;48.488;9.202;2022-09-02T01:41:45;4.47;;;3.73;;
17207;SDS011;8720;48.488;9.202;2022-09-02T01:44:13;3.60;;;3.30;;
17207;SDS011;8720;48.488;9.202;2022-09-02T01:46:42;3.10;;;2.90;;
17207;SDS011;8720;48.488;9.202;2022-09-02T01:49:11;3.40;;;3.10;;
17207;SDS011;8720;48.488;9.202;2022-09-02T01:51:38;3.80;;;3.30;;
17207;SDS011;8720;48.488;9.202;2022-09-02T01:54:06;2.70;;;2.50;;
17207;SDS011;8720;48.488;9.202;2022-09-02T01:56:35;3.30;;;2.73;;
17207;SDS011;8720;48.488;9.202;2022-09-02T01:59:02;4.10;;;2.50;;
17207;SDS011;8720;48.488;9.202;2022-09-02T02:01:32;3.47;;;2.90;;
17207;SDS011;8720;48.488;9.202;2022-09-02T02:04:00;3.60;;;3.30;;
17207;SDS011;8720;48.488;9.202;2022-09-02T02:06:28;2.60;;;2.40;;
17207;SDS011;8720;48.488;9.202;2022-09-02T02:08:55;2.97;;;2.77;;
17207;SDS011;8720;48.488;9.202;2022-09-02T02:11:23;3.30;;;2.50;;
17207;SDS011;8720;48.488;9.202;2022-09-02T02:13:57;4.77;;;2.90;;
17207;SDS011;8720;48.488;9.202;2022-09-02T02:16:25;3.10;;;2.43;;
17207;SDS011;8720;48.488;9.202;2022-09-02T02:18:52;2.87;;;2.60;;
17207;SDS011;8720;48.488;9.202;2022-09-02T02:21:20;2.90;;;2.70;;
17207;SDS011;8720;48.488;9.202;2022-09-02T02:23:49;2.50;;;2.20;;
17207;SDS011;8720;48.488;9.202;2022-09-02T02:26:17;2.80;;;2.60;;
17207;SDS011;8720;48.488;9.202;2022-09-02T02:28:45;4.20;;;2.70;;
17207;SDS011;8720;48.488;9.202;2022-09-02T02:31:14;3.10;;;2.57;;
17207;SDS011;8720;48.488;9.202;2022-09-02T02:33:41;3.63;;;3.33;;
17207;SDS011;8720;48.488;9.202;2022-09-02T02:36:09;3.57;;;2.93;;
17207;SDS011;8720;48.488;9.202;2022-09-02T02:38:37;3.40;;;3.10;;
17207;SDS011;8720;48.488;9.202;2022-09-02T02:41:06;3.20;;;3.00;;
17207;SDS011;8720;48.488;9.202;2022-09-02T02:43:36;2.60;;;2.40;;
17207;SDS011;8720;48.488;9.202;2022-09-02T02:46:05;3.17;;;2.87;;
17207;SDS011;8720;48.488;9.202;2022-09-02T02:48:37;3.50;;;2.53;;
17207;SDS011;8720;48.488;9.202;2022-09-02T02:51:05;3.00;;;2.40;;
17207;SDS011;8720;48.488;9.202;2022-09-02T02:53:34;2.50;;;2.30;;
17207;SDS011;8720;48.488;9.202;2022-09-02T02:56:01;3.07;;;2.13;;
17207;SDS011;8720;48.488;9.202;2022-09-02T02:58:30;2.30;;;2.10;;
17207;SDS011;8720;48.488;9.202;2022-09-02T03:00:59;2.73;;;2.37;;
17207;SDS011;8720;48.488;9.202;2022-09-02T03:03:28;2.40;;;2.20;;
17207;SDS011;8720;48.488;9.202;2022-09-02T03:05:58;2.60;;;2.13;;
17207;SDS011;8720;48.488;9.202;2022-09-02T03:08:26;2.50;;;2.13;;
17207;SDS011;8720;48.488;9.202;2022-09-02T03:10:55;3.20;;;2.27;;
17207;SDS011;8720;48.488;9.202;2022-09-02T03:13:25;2.10;;;1.90;;
17207;SDS011;8720;48.488;9.202;2022-09-02T03:15:53;2.33;;;2.13;;
17207;SDS011;8720;48.488;9.202;2022-09-02T03:18:21;2.27;;;2.07;;
17207;SDS011;8720;48.488;9.202;2022-09-02T03:20:49;2.50;;;2.30;;
17207;SDS011;8720;48.488;9.202;2022-09-02T03:23:17;3.70;;;2.30;;
17207;SDS011;8720;48.488;9.202;2022-09-02T03:25:47;4.30;;;2.80;;
17207;SDS011;8720;48.488;9.202;2022-09-02T03:28:24;3.23;;;2.30;;
17207;SDS011;8720;48.488;9.202;2022-09-02T03:30:52;2.60;;;2.20;;
17207;SDS011;8720;48.488;9.202;2022-09-02T03:33:20;2.87;;;2.00;;
17207;SDS011;8720;48.488;9.202;2022-09-02T03:35:47;2.30;;;2.10;;
17207;SDS011;8720;48.488;9.202;2022-09-02T03:38:14;1.97;;;1.87;;
17207;SDS011;8720;48.488;9.202;2022-09-02T03:40:44;3.30;;;2.10;;
17207;SDS011;8720;48.488;9.202;2022-09-02T03:43:12;2.33;;;2.13;;
17207;SDS011;8720;48.488;9.202;2022-09-02T03:45:40;3.80;;;2.30;;
17207;SDS011;8720;48.488;9.202;2022-09-02T03:48:11;3.50;;;2.40;;
17207;SDS011;8720;48.488;9.202;2022-09-02T03:50:42;3.27;;;1.87;;
17207;SDS011;8720;48.488;9.202;2022-09-02T03:53:15;4.27;;;1.97;;
17207;SDS011;8720;48.488;9.202;2022-09-02T03:55:45;2.40;;;2.20;;
17207;SDS011;8720;48.488;9.202;2022-09-02T03:58:12;1.60;;;1.50;;
17207;SDS011;8720;48.488;9.202;2022-09-02T04:00:41;2.47;;;2.00;;
17207;SDS011;8720;48.488;9.202;2022-09-02T04:03:09;2.20;;;2.00;;
17207;SDS011;8720;48.488;9.202;2022-09-02T04:05:36;2.07;;;1.97;;
17207;SDS011;8720;48.488;9.202;2022-09-02T04:08:04;3.30;;;2.10;;
17207;SDS011;8720;48.488;9.202;2022-09-02T04:10:31;2.13;;;1.93;;
17207;SDS011;8720;48.488;9.202;2022-09-02T04:13:00;2.23;;;2.03;;
17207;SDS011;8720;48.488;9.202;2022-09-02T04:15:27;2.33;;;2.00;;
17207;SDS011;8720;48.488;9.202;2022-09-02T04:21:54;2.70;;;2.07;;
17207;SDS011;8720;48.488;9.202;2022-09-02T04:24:22;2.27;;;2.07;;
17207;SDS011;8720;48.488;9.202;2022-09-02T04:26:50;2.10;;;1.63;;
17207;SDS011;8720;48.488;9.202;2022-09-02T04:29:19;2.63;;;2.43;;
17207;SDS011;8720;48.488;9.202;2022-09-02T04:31:49;1.93;;;1.77;;
17207;SDS011;8720;48.488;9.202;2022-09-02T04:34:16;2.80;;;2.13;;
17207;SDS011;8720;48.488;9.202;2022-09-02T04:36:46;2.20;;;2.07;;
17207;SDS011;8720;48.488;9.202;2022-09-02T04:39:14;1.90;;;1.80;;
17207;SDS011;8720;48.488;9.202;2022-09-02T04:41:41;2.33;;;2.13;;
17207;SDS011;8720;48.488;9.202;2022-09-02T04:44:11;2.83;;;2.53;;
17207;SDS011;8720;48.488;9.202;2022-09-02T04:46:43;2.37;;;2.17;;
17207;SDS011;8720;48.488;9.202;2022-09-02T04:49:15;2.50;;;2.30;;
17207;SDS011;8720;48.488;9.202;2022-09-02T04:51:44;2.20;;;1.87;;
17207;SDS011;8720;48.488;9.202;2022-09-02T04:54:12;2.13;;;1.93;;
17207;SDS011;8720;48.488;9.202;2022-09-02T04:56:42;4.17;;;2.00;;
17207;SDS011;8720;48.488;9.202;2022-09-02T04:59:10;2.60;;;2.03;;
17207;SDS011;8720;48.488;9.202;2022-09-02T05:01:43;2.53;;;2.33;;
17207;SDS011;8720;48.488;9.202;2022-09-02T05:04:16;2.72;;;2.17;;
17207;SDS011;8720;48.488;9.202;2022-09-02T05:06:47;2.77;;;2.40;;
17207;SDS011;8720;48.488;9.202;2022-09-02T05:09:17;2.87;;;2.07;;
17207;SDS011;8720;48.488;9.202;2022-09-02T05:11:50;2.30;;;2.10;;
17207;SDS011;8720;48.488;9.202;2022-09-02T05:14:22;2.90;;;2.60;;
17207;SDS011;8720;48.488;9.202;2022-09-02T05:16:53;2.57;;;2.10;;
17207;SDS011;8720;48.488;9.202;2022-09-02T05:19:23;1.80;;;1.60;;
17207;SDS011;8720;48.488;9.202;2022-09-02T05:21:51;2.90;;;2.20;;
17207;SDS011;8720;48.488;9.202;2022-09-02T05:24:25;2.40;;;2.00;;
17207;SDS011;8720;48.488;9.202;2022-09-02T05:26:56;2.73;;;2.10;;
17207;SDS011;8720;48.488;9.202;2022-09-02T05:29:25;2.23;;;2.03;;
17207;SDS011;8720;48.488;9.202;2022-09-02T05:31:56;2.83;;;2.53;;
17207;SDS011;8720;48.488;9.202;2022-09-02T05:34:24;2.23;;;2.03;;
17207;SDS011;8720;48.488;9.202;2022-09-02T05:36:56;2.97;;;2.37;;
17207;SDS011;8720;48.488;9.202;2022-09-02T05:39:26;2.80;;;2.60;;
17207;SDS011;8720;48.488;9.202;2022-09-02T05:41:54;3.10;;;1.93;;
17207;SDS011;8720;48.488;9.202;2022-09-02T05:44:21;4.20;;;2.50;;
17207;SDS011;8720;48.488;9.202;2022-09-02T05:46:49;2.67;;;2.20;;
17207;SDS011;8720;48.488;9.202;2022-09-02T05:49:17;3.70;;;2.80;;
17207;SDS011;8720;48.488;9.202;2022-09-02T05:51:55;2.50;;;2.30;;
17207;SDS011;8720;48.488;9.202;2022-09-02T05:54:30;4.60;;;2.37;;
17207;SDS011;8720;48.488;9.202;2022-09-02T05:57:04;2.83;;;2.50;;
17207;SDS011;8720;48.488;9.202;2022-09-02T05:59:38;3.83;;;2.50;;
17207;SDS011;8720;48.488;9.202;2022-09-02T06:02:12;2.50;;;2.30;;
17207;SDS011;8720;48.488;9.202;2022-09-02T06:04:44;3.50;;;2.37;;
17207;SDS011;8720;48.488;9.202;2022-09-02T06:07:15;2.60;;;2.40;;
17207;SDS011;8720;48.488;9.202;2022-09-02T06:09:48;2.73;;;2.10;;
17207;SDS011;8720;48.488;9.202;2022-09-02T06:12:18;4.23;;;2.53;;
17207;SDS011;8720;48.488;9.202;2022-09-02T06:14:47;2.53;;;2.27;;
17207;SDS011;8720;48.488;9.202;2022-09-02T06:17:18;2.90;;;2.37;;
17207;SDS011;8720;48.488;9.202;2022-09-02T06:19:50;2.17;;;1.93;;
17207;SDS011;8720;48.488;9.202;2022-09-02T06:22:19;2.97;;;2.17;;
17207;SDS011;8720;48.488;9.202;2022-09-02T06:24:47;2.77;;;2.30;;
17207;SDS011;8720;48.488;9.202;2022-09-02T06:27:20;4.00;;;2.27;;
17207;SDS011;8720;48.488;9.202;2022-09-02T06:29:50;2.17;;;1.97;;
17207;SDS011;8720;48.488;9.202;2022-09-02T06:32:20;3.40;;;3.07;;
17207;SDS011;8720;48.488;9.202;2022-09-02T06:34:53;4.30;;;3.40;;
17207;SDS011;8720;48.488;9.202;2022-09-02T06:37:23;3.67;;;3.37;;
17207;SDS011;8720;48.488;9.202;2022-09-02T06:39:51;5.30;;;3.20;;
17207;SDS011;8720;48.488;9.202;2022-09-02T06:42:22;3.07;;;2.77;;
17207;SDS011;8720;48.488;9.202;2022-09-02T06:45:19;3.37;;;2.93;;
17207;SDS011;8720;48.488;9.202;2022-09-02T06:47:49;7.93;;;3.10;;
17207;SDS011;8720;48.488;9.202;2022-09-02T06:50:19;3.20;;;3.00;;
17207;SDS011;8720;48.488;9.202;2022-09-02T06:52:46;8.33;;;3.20;;
17207;SDS011;8720;48.488;9.202;2022-09-02T06:55:15;3.90;;;2.60;;
17207;SDS011;8720;48.488;9.202;2022-09-02T06:57:42;3.00;;;2.77;;
17207;SDS011;8720;48.488;9.202;2022-09-02T07:00:12;3.30;;;2.53;;
17207;SDS011;8720;48.488;9.202;2022-09-02T07:02:41;2.20;;;2.00;;
17207;SDS011;8720;48.488;9.202;2022-09-02T07:05:31;2.00;;;1.80;;
17207;SDS011;8720;48.488;9.202;2022-09-02T07:07:58;4.80;;;1.90;;
17207;SDS011;8720;48.488;9.202;2022-09-02T07:10:25;4.97;;;2.10;;
17207;SDS011;8720;48.488;9.202;2022-09-02T07:12:54;2.70;;;1.80;;
17207;SDS011;8720;48.488;9.202;2022-09-02T07:15:22;1.83;;;1.73;;
17207;SDS011;8720;48.488;9.202;2022-09-02T07:17:50;2.80;;;1.67;;
17207;SDS011;8720;48.488;9.202;2022-09-02T07:20:28;2.33;;;1.63;;
17207;SDS011;8720;48.488;9.202;2022-09-02T07:23:00;2.10;;;1.63;;
17207;SDS011;8720;48.488;9.202;2022-09-02T07:25:30;2.00;;;1.57;;
17207;SDS011;8720;48.488;9.202;2022-09-02T07:27:57;2.00;;;1.70;;
17207;SDS011;8720;48.488;9.202;2022-09-02T07:30:29;2.23;;;1.60;;
17207;SDS011;8720;48.488;9.202;2022-09-02T07:33:03;1.93;;;1.73;;
17207;SDS011;8720;48.488;9.202;2022-09-02T07:35:31;1.87;;;1.50;;
17207;SDS011;8720;48.488;9.202;2022-09-02T07:38:02;2.10;;;1.80;;
17207;SDS011;8720;48.488;9.202;2022-09-02T07:40:32;4.10;;;2.77;;
17207;SDS011;8720;48.488;9.202;2022-09-02T07:43:01;2.97;;;2.03;;
17207;SDS011;8720;48.488;9.202;2022-09-02T07:45:33;3.30;;;2.20;;
17207;SDS011;8720;48.488;9.202;2022-09-02T07:48:02;3.10;;;2.10;;
17207;SDS011;8720;48.488;9.202;2022-09-02T07:50:34;1.80;;;1.70;;
17207;SDS011;8720;48.488;9.202;2022-09-02T07:53:06;2.37;;;1.83;;
17207;SDS011;8720;48.488;9.202;2022-09-02T07:55:36;3.00;;;2.10;;
17207;SDS011;8720;48.488;9.202;2022-09-02T07:58:05;2.97;;;2.27;;
17207;SDS011;8720;48.488;9.202;2022-09-02T08:00:33;2.03;;;1.83;;
17207;SDS011;8720;48.488;9.202;2022-09-02T08:03:07;2.23;;;1.93;;
17207;SDS011;8720;48.488;9.202;2022-09-02T08:05:41;3.30;;;2.10;;
17207;SDS011;8720;48.488;9.202;2022-09-02T08:08:12;4.10;;;2.17;;
17207;SDS011;8720;48.488;9.202;2022-09-02T08:10:43;4.10;;;1.93;;
17207;SDS011;8720;48.488;9.202;2022-09-02T08:13:11;2.63;;;2.37;;
17207;SDS011;8720;48.488;9.202;2022-09-02T08:15:38;2.50;;;2.23;;
17207;SDS011;8720;48.488;9.202;2022-09-02T08:18:06;3.67;;;2.20;;
17207;SDS011;8720;48.488;9.202;2022-09-02T08:20:33;3.53;;;2.10;;
17207;SDS011;8720;48.488;9.202;2022-09-02T08:23:02;2.33;;;1.80;;
17207;SDS011;8720;48.488;9.202;2022-09-02T08:25:31;2.80;;;2.40;;
17207;SDS011;8720;48.488;9.202;2022-09-02T08:27:59;2.43;;;2.00;;
17207;SDS011;8720;48.488;9.202;2022-09-02T08:30:28;2.17;;;1.70;;
17207;SDS011;8720;48.488;9.202;2022-09-02T08:32:56;3.30;;;1.87;;
17207;SDS011;8720;48.488;9.202;2022-09-02T08:35:23;2.93;;;1.57;;
17207;SDS011;8720;48.488;9.202;2022-09-02T08:37:51;1.73;;;1.50;;
17207;SDS011;8720;48.488;9.202;2022-09-02T08:40:19;1.60;;;1.50;;
17207;SDS011;8720;48.488;9.202;2022-09-02T08:42:51;1.90;;;1.70;;
17207;SDS011;8720;48.488;9.202;2022-09-02T08:45:22;2.03;;;1.60;;
17207;SDS011;8720;48.488;9.202;2022-09-02T08:47:57;1.73;;;1.50;;
17207;SDS011;8720;48.488;9.202;2022-09-02T08:50:35;1.57;;;1.37;;
17207;SDS011;8720;48.488;9.202;2022-09-02T08:53:06;1.63;;;1.40;;
17207;SDS011;8720;48.488;9.202;2022-09-02T08:55:44;3.07;;;1.53;;
17207;SDS011;8720;48.488;9.202;2022-09-02T08:58:21;2.13;;;1.40;;
17207;SDS011;8720;48.488;9.202;2022-09-02T09:00:54;1.87;;;1.60;;
17207;SDS011;8720;48.488;9.202;2022-09-02T09:03:32;1.60;;;1.40;;
17207;SDS011;8720;48.488;9.202;2022-09-02T09:06:11;2.03;;;1.30;;
17207;SDS011;8720;48.488;9.202;2022-09-02T09:08:50;1.50;;;1.23;;
17207;SDS011;8720;48.488;9.202;2022-09-02T09:11:27;1.87;;;1.70;;
17207;SDS011;8720;48.488;9.202;2022-09-02T09:14:13;1.93;;;1.30;;
17207;SDS011;8720;48.488;9.202;2022-09-02T09:16:53;2.37;;;1.50;;
17207;SDS011;8720;48.488;9.202;2022-09-02T09:19:27;1.30;;;1.10;;
17207;SDS011;8720;48.488;9.202;2022-09-02T09:22:09;1.80;;;1.70;;
17207;SDS011;8720;48.488;9.202;2022-09-02T09:24:40;4.37;;;2.00;;
17207;SDS011;8720;48.488;9.202;2022-09-02T09:27:11;2.33;;;1.90;;
17207;SDS011;8720;48.488;9.202;2022-09-02T09:29:43;2.07;;;1.50;;
17207;SDS011;8720;48.488;9.202;2022-09-02T09:32:13;1.73;;;1.63;;
17207;SDS011;8720;48.488;9.202;2022-09-02T09:34:55;1.70;;;1.60;;
17207;SDS011;8720;48.488;9.202;2022-09-02T09:37:30;1.60;;;1.50;;
17207;SDS011;8720;48.488;9.202;2022-09-02T09:40:04;1.83;;;1.67;;
17207;SDS011;8720;48.488;9.202;2022-09-02T09:42:55;2.60;;;1.70;;
17207;SDS011;8720;48.488;9.202;2022-09-02T09:45:39;2.67;;;1.80;;
17207;SDS011;8720;48.488;9.202;2022-09-02T09:51:10;1.80;;;1.70;;
17207;SDS011;8720;48.488;9.202;2022-09-02T09:53:41;1.73;;;1.63;;
17207;SDS011;8720;48.488;9.202;2022-09-02T09:56:25;2.00;;;1.80;;
17207;SDS011;8720;48.488;9.202;2022-09-02T09:58:58;1.60;;;1.50;;
17207;SDS011;8720;48.488;9.202;2022-09-02T10:01:27;2.17;;;1.50;;
17207;SDS011;8720;48.488;9.202;2022-09-02T10:03:57;2.30;;;1.90;;
17207;SDS011;8720;48.488;9.202;2022-09-02T10:06:36;2.00;;;1.80;;
17207;SDS011;8720;48.488;9.202;2022-09-02T10:11:57;1.70;;;1.60;;
17207;SDS011;8720;48.488;9.202;2022-09-02T10:14:26;2.27;;;1.77;;
17207;SDS011;8720;48.488;9.202;2022-09-02T10:17:05;3.23;;;1.80;;
17207;SDS011;8720;48.488;9.202;2022-09-02T10:19:58;1.77;;;1.67;;
17207;SDS011;8720;48.488;9.202;2022-09-02T10:22:43;2.20;;;1.50;;
17207;SDS011;8720;48.488;9.202;2022-09-02T10:25:46;1.80;;;1.70;;
17207;SDS011;8720;48.488;9.202;2022-09-02T10:28:35;2.10;;;1.80;;
17207;SDS011;8720;48.488;9.202;2022-09-02T10:31:36;2.43;;;1.80;;
17207;SDS011;8720;48.488;9.202;2022-09-02T10:34:15;2.00;;;1.77;;
17207;SDS011;8720;48.488;9.202;2022-09-02T10:37:01;2.33;;;2.13;;
17207;SDS011;8720;48.488;9.202;2022-09-02T10:42:38;1.77;;;1.67;;
17207;SDS011;8720;48.488;9.202;2022-09-02T10:45:22;1.73;;;1.63;;
17207;SDS011;8720;48.488;9.202;2022-09-02T10:48:03;3.63;;;1.80;;
17207;SDS011;8720;48.488;9.202;2022-09-02T10:51:00;3.60;;;2.10;;
17207;SDS011;8720;48.488;9.202;2022-09-02T10:53:40;2.30;;;2.03;;
17207;SDS011;8720;48.488;9.202;2022-09-02T10:56:22;1.90;;;1.67;;
17207;SDS011;8720;48.488;9.202;2022-09-02T10:58:56;2.13;;;1.93;;
17207;SDS011;8720;48.488;9.202;2022-09-02T11:01:36;4.17;;;2.00;;
17207;SDS011;8720;48.488;9.202;2022-09-02T11:04:15;1.97;;;1.87;;
17207;SDS011;8720;48.488;9.202;2022-09-02T11:06:59;2.03;;;1.83;;
17207;SDS011;8720;48.488;9.202;2022-09-02T11:09:31;1.70;;;1.50;;
17207;SDS011;8720;48.488;9.202;2022-09-02T11:12:06;2.00;;;1.80;;
17207;SDS011;8720;48.488;9.202;2022-09-02T11:14:43;1.90;;;1.60;;
17207;SDS011;8720;48.488;9.202;2022-09-02T11:17:26;2.23;;;2.00;;
17207;SDS011;8720;48.488;9.202;2022-09-02T11:20:03;3.13;;;1.83;;
17207;SDS011;8720;48.488;9.202;2022-09-02T11:22:44;1.97;;;1.77;;
17207;SDS011;8720;48.488;9.202;2022-09-02T11:25:24;1.47;;;1.37;;
17207;SDS011;8720;48.488;9.202;2022-09-02T11:27:59;2.47;;;1.80;;
17207;SDS011;8720;48.488;9.202;2022-09-02T11:30:42;2.17;;;1.80;;
17207;SDS011;8720;48.488;9.202;2022-09-02T11:33:19;2.73;;;1.97;;
17207;SDS011;8720;48.488;9.202;2022-09-02T11:35:54;1.63;;;1.53;;
17207;SDS011;8720;48.488;9.202;2022-09-02T11:38:33;2.80;;;1.90;;
17207;SDS011;8720;48.488;9.202;2022-09-02T11:41:14;3.33;;;2.20;;
17207;SDS011;8720;48.488;9.202;2022-09-02T11:44:31;4.30;;;1.90;;
17207;SDS011;8720;48.488;9.202;2022-09-02T11:47:49;2.37;;;1.90;;
17207;SDS011;8720;48.488;9.202;2022-09-02T11:51:22;2.50;;;1.87;;
17207;SDS011;8720;48.488;9.202;2022-09-02T11:54:15;3.60;;;2.20;;
17207;SDS011;8720;48.488;9.202;2022-09-02T11:56:46;2.77;;;2.17;;
17207;SDS011;8720;48.488;9.202;2022-09-02T12:02:39;2.23;;;1.90;;
17207;SDS011;8720;48.488;9.202;2022-09-02T12:11:47;2.30;;;2.10;;
17207;SDS011;8720;48.488;9.202;2022-09-02T12:29:48;2.70;;;1.50;;
17207;SDS011;8720;48.488;9.202;2022-09-02T12:35:33;2.27;;;2.00;;
17207;SDS011;8720;48.488;9.202;2022-09-02T12:38:37;1.93;;;1.70;;
17207;SDS011;8720;48.488;9.202;2022-09-02T12:41:07;3.10;;;1.90;;
17207;SDS011;8720;48.488;9.202;2022-09-02T12:44:02;2.40;;;1.90;;
17207;SDS011;8720;48.488;9.202;2022-09-02T12:46:52;2.00;;;1.80;;
17207;SDS011;8720;48.488;9.202;2022-09-02T12:49:39;2.17;;;1.80;;
17207;SDS011;8720;48.488;9.202;2022-09-02T12:52:43;2.30;;;1.97;;
17207;SDS011;8720;48.488;9.202;2022-09-02T12:55:19;1.80;;;1.67;;
17207;SDS011;8720;48.488;9.202;2022-09-02T12:57:53;2.20;;;1.93;;
17207;SDS011;8720;48.488;9.202;2022-09-02T13:00:36;2.30;;;2.10;;
17207;SDS011;8720;48.488;9.202;2022-09-02T13:03:28;1.70;;;1.60;;
17207;SDS011;8720;48.488;9.202;2022-09-02T13:06:24;1.73;;;1.63;;
17207;SDS011;8720;48.488;9.202;2022-09-02T13:09:10;2.37;;;1.60;;
17207;SDS011;8720;48.488;9.202;2022-09-02T13:12:32;2.30;;;2.10;;
17207;SDS011;8720;48.488;9.202;2022-09-02T13:15:50;2.50;;;1.83;;
17207;SDS011;8720;48.488;9.202;2022-09-02T13:25:10;2.50;;;1.77;;
17207;SDS011;8720;48.488;9.202;2022-09-02T13:31:27;3.40;;;1.73;;
17207;SDS011;8720;48.488;9.202;2022-09-02T13:33:56;2.70;;;1.77;;
17207;SDS011;8720;48.488;9.202;2022-09-02T13:36:27;2.07;;;1.87;;
17207;SDS011;8720;48.488;9.202;2022-09-02T13:39:08;3.03;;;1.80;;
17207;SDS011;8720;48.488;9.202;2022-09-02T13:41:38;2.87;;;2.10;;
17207;SDS011;8720;48.488;9.202;2022-09-02T13:44:06;3.63;;;2.40;;
17207;SDS011;8720;48.488;9.202;2022-09-02T13:46:44;2.77;;;1.93;;
17207;SDS011;8720;48.488;9.202;2022-09-02T13:49:20;2.07;;;1.53;;
17207;SDS011;8720;48.488;9.202;2022-09-02T13:51:53;1.73;;;1.63;;
17207;SDS011;8720;48.488;9.202;2022-09-02T13:54:31;2.20;;;1.67;;
17207;SDS011;8720;48.488;9.202;2022-09-02T13:57:02;1.90;;;1.80;;
17207;SDS011;8720;48.488;9.202;2022-09-02T13:59:33;2.20;;;2.00;;
17207;SDS011;8720;48.488;9.202;2022-09-02T14:02:21;1.90;;;1.80;;
17207;SDS011;8720;48.488;9.202;2022-09-02T14:04:53;1.50;;;1.40;;
17207;SDS011;8720;48.488;9.202;2022-09-02T14:07:27;1.70;;;1.60;;
17207;SDS011;8720;48.488;9.202;2022-09-02T14:10:00;1.93;;;1.73;;
17207;SDS011;8720;48.488;9.202;2022-09-02T14:12:33;2.70;;;1.50;;
17207;SDS011;8720;48.488;9.202;2022-09-02T14:15:05;1.87;;;1.50;;
17207;SDS011;8720;48.488;9.202;2022-09-02T14:20:09;1.87;;;1.77;;
17207;SDS011;8720;48.488;9.202;2022-09-02T14:22:51;1.50;;;1.40;;
17207;SDS011;8720;48.488;9.202;2022-09-02T14:25:20;2.03;;;1.53;;
17207;SDS011;8720;48.488;9.202;2022-09-02T14:27:49;1.70;;;1.60;;
17207;SDS011;8720;48.488;9.202;2022-09-02T14:30:27;1.80;;;1.70;;
17207;SDS011;8720;48.488;9.202;2022-09-02T14:35:55;1.93;;;1.80;;
17207;SDS011;8720;48.488;9.202;2022-09-02T14:38:26;1.67;;;1.30;;
17207;SDS011;8720;48.488;9.202;2022-09-02T14:41:00;1.70;;;1.60;;
17207;SDS011;8720;48.488;9.202;2022-09-02T14:43:33;1.77;;;1.67;;
17207;SDS011;8720;48.488;9.202;2022-09-02T14:46:13;1.50;;;1.40;;
17207;SDS011;8720;48.488;9.202;2022-09-02T14:48:51;1.67;;;1.57;;
17207;SDS011;8720;48.488;9.202;2022-09-02T14:51:27;1.60;;;1.50;;
17207;SDS011;8720;48.488;9.202;2022-09-02T14:54:03;2.30;;;1.60;;
17207;SDS011;8720;48.488;9.202;2022-09-02T14:56:45;2.13;;;1.80;;
17207;SDS011;8720;48.488;9.202;2022-09-02T14:59:16;1.47;;;1.37;;
17207;SDS011;8720;48.488;9.202;2022-09-02T15:01:45;1.67;;;1.50;;
17207;SDS011;8720;48.488;9.202;2022-09-02T15:04:15;2.40;;;1.83;;
17207;SDS011;8720;48.488;9.202;2022-09-02T15:06:45;2.80;;;1.70;;
17207;SDS011;8720;48.488;9.202;2022-09-02T15:09:14;1.57;;;1.40;;
17207;SDS011;8720;48.488;9.202;2022-09-02T15:11:42;2.30;;;1.93;;
17207;SDS011;8720;48.488;9.202;2022-09-02T15:14:15;2.27;;;1.87;;
17207;SDS011;8720;48.488;9.202;2022-09-02T15:16:43;1.80;;;1.70;;
17207;SDS011;8720;48.488;9.202;2022-09-02T15:19:10;2.20;;;1.83;;
17207;SDS011;8720;48.488;9.202;2022-09-02T15:21:38;1.57;;;1.47;;
17207;SDS011;8720;48.488;9.202;2022-09-02T15:24:07;1.60;;;1.50;;
17207;SDS011;8720;48.488;9.202;2022-09-02T15:26:34;2.17;;;1.70;;
17207;SDS011;8720;48.488;9.202;2022-09-02T15:29:02;1.53;;;1.43;;
17207;SDS011;8720;48.488;9.202;2022-09-02T15:31:29;1.60;;;1.50;;
17207;SDS011;8720;48.488;9.202;2022-09-02T15:33:57;1.80;;;1.43;;
17207;SDS011;8720;48.488;9.202;2022-09-02T15:36:24;1.80;;;1.60;;
17207;SDS011;8720;48.488;9.202;2022-09-02T15:38:52;3.83;;;1.93;;
17207;SDS011;8720;48.488;9.202;2022-09-02T15:41:21;1.70;;;1.60;;
17207;SDS011;8720;48.488;9.202;2022-09-02T15:43:51;1.60;;;1.50;;
17207;SDS011;8720;48.488;9.202;2022-09-02T15:46:21;3.00;;;1.60;;
17207;SDS011;8720;48.488;9.202;2022-09-02T15:48:51;2.00;;;1.70;;
17207;SDS011;8720;48.488;9.202;2022-09-02T15:51:21;1.70;;;1.50;;
17207;SDS011;8720;48.488;9.202;2022-09-02T15:53:53;2.00;;;1.90;;
17207;SDS011;8720;48.488;9.202;2022-09-02T15:56:24;2.53;;;1.50;;
17207;SDS011;8720;48.488;9.202;2022-09-02T15:58:54;1.60;;;1.27;;
17207;SDS011;8720;48.488;9.202;2022-09-02T16:01:23;1.60;;;1.50;;
17207;SDS011;8720;48.488;9.202;2022-09-02T16:03:51;1.73;;;1.40;;
17207;SDS011;8720;48.488;9.202;2022-09-02T16:06:20;2.87;;;1.77;;
17207;SDS011;8720;48.488;9.202;2022-09-02T16:08:47;1.70;;;1.60;;
17207;SDS011;8720;48.488;9.202;2022-09-02T16:11:14;1.53;;;1.43;;
17207;SDS011;8720;48.488;9.202;2022-09-02T16:13:44;1.60;;;1.50;;
17207;SDS011;8720;48.488;9.202;2022-09-02T16:16:12;1.60;;;1.50;;
17207;SDS011;8720;48.488;9.202;2022-09-02T16:18:40;1.90;;;1.30;;
17207;SDS011;8720;48.488;9.202;2022-09-02T16:21:09;2.60;;;1.57;;
17207;SDS011;8720;48.488;9.202;2022-09-02T16:23:38;6.03;;;5.63;;
17207;SDS011;8720;48.488;9.202;2022-09-02T16:26:06;2.53;;;2.33;;
17207;SDS011;8720;48.488;9.202;2022-09-02T16:28:36;1.73;;;1.63;;
17207;SDS011;8720;48.488;9.202;2022-09-02T16:31:07;2.53;;;2.33;;
17207;SDS011;8720;48.488;9.202;2022-09-02T16:33:37;2.03;;;1.80;;